sensor_id;sensor_type;location;lat;lon;timestamp;pressure;altitude;pressure_sealevel;temperature;humidity
76011;BME280;64701;43.536;1.478;2023-02-03T00:01:29;101240.91;;;5.52;60.96
76011;BME280;64701;43.536;1.478;2023-02-03T00:03:54;101236.69;;;5.49;61.05
76011;BME280;64701;43.536;1.478;2023-02-03T00:06:19;101236.22;;;5.44;61.33
76011;BME280;64701;43.536;1.478;2023-02-03T00:08:45;101233.94;;;5.40;61.96
76011;BME280;64701;43.536;1.478;2023-02-03T00:11:11;101232.53;;;5.36;63.27
76011;BME280;64701;43.536;1.478;2023-02-03T00:13:36;101231.69;;;5.35;62.93
76011;BME280;64701;43.536;1.478;2023-02-03T00:16:01;101233.94;;;5.28;65.96
76011;BME280;64701;43.536;1.478;2023-02-03T00:18:27;101238.66;;;5.12;68.48
76011;BME280;64701;43.536;1.478;2023-02-03T00:20:52;101236.03;;;5.12;63.84
76011;BME280;64701;43.536;1.478;2023-02-03T00:23:18;101228.84;;;5.03;65.96
76011;BME280;64701;43.536;1.478;2023-02-03T00:25:43;101228.09;;;5.01;63.30
76011;BME280;64701;43.536;1.478;2023-02-03T00:28:09;101224.78;;;4.99;64.81
76011;BME280;64701;43.536;1.478;2023-02-03T00:30:34;101223.00;;;5.00;64.94
76011;BME280;64701;43.536;1.478;2023-02-03T00:33:00;101232.34;;;4.80;69.29
76011;BME280;64701;43.536;1.478;2023-02-03T00:35:26;101228.31;;;4.87;64.47
76011;BME280;64701;43.536;1.478;2023-02-03T00:37:51;101227.22;;;4.89;64.81
76011;BME280;64701;43.536;1.478;2023-02-03T00:40:17;101224.50;;;4.91;65.57
76011;BME280;64701;43.536;1.478;2023-02-03T00:42:43;101234.06;;;4.92;66.38
76011;BME280;64701;43.536;1.478;2023-02-03T00:45:08;101222.47;;;4.94;65.36
76011;BME280;64701;43.536;1.478;2023-02-03T00:47:34;101229.28;;;4.97;64.28
76011;BME280;64701;43.536;1.478;2023-02-03T00:49:59;101238.34;;;4.93;66.40
76011;BME280;64701;43.536;1.478;2023-02-03T00:52:24;101236.56;;;4.93;64.48
76011;BME280;64701;43.536;1.478;2023-02-03T00:54:49;101244.75;;;4.89;64.86
76011;BME280;64701;43.536;1.478;2023-02-03T00:57:15;101243.56;;;4.82;67.12
76011;BME280;64701;43.536;1.478;2023-02-03T00:59:40;101243.44;;;4.83;65.46
76011;BME280;64701;43.536;1.478;2023-02-03T01:02:05;101245.22;;;4.83;65.69
76011;BME280;64701;43.536;1.478;2023-02-03T01:04:31;101242.59;;;4.83;66.81
76011;BME280;64701;43.536;1.478;2023-02-03T01:06:56;101238.13;;;4.72;68.61
76011;BME280;64701;43.536;1.478;2023-02-03T01:09:23;101244.22;;;4.73;65.92
76011;BME280;64701;43.536;1.478;2023-02-03T01:11:49;101248.53;;;4.74;64.87
76011;BME280;64701;43.536;1.478;2023-02-03T01:14:14;101253.03;;;4.72;64.80
76011;BME280;64701;43.536;1.478;2023-02-03T01:16:39;101254.22;;;4.68;64.76
76011;BME280;64701;43.536;1.478;2023-02-03T01:19:05;101255.59;;;4.61;65.10
76011;BME280;64701;43.536;1.478;2023-02-03T01:21:30;101262.75;;;4.59;65.27
76011;BME280;64701;43.536;1.478;2023-02-03T01:23:57;101261.09;;;4.58;65.50
76011;BME280;64701;43.536;1.478;2023-02-03T01:26:22;101257.72;;;4.56;64.88
76011;BME280;64701;43.536;1.478;2023-02-03T01:28:52;101264.84;;;4.53;65.06
76011;BME280;64701;43.536;1.478;2023-02-03T01:31:19;101263.22;;;4.53;65.13
76011;BME280;64701;43.536;1.478;2023-02-03T01:33:45;101266.78;;;4.51;64.87
76011;BME280;64701;43.536;1.478;2023-02-03T01:36:12;101266.78;;;4.51;64.84
76011;BME280;64701;43.536;1.478;2023-02-03T01:38:38;101268.66;;;4.49;65.40
76011;BME280;64701;43.536;1.478;2023-02-03T01:41:05;101270.44;;;4.49;65.85
76011;BME280;64701;43.536;1.478;2023-02-03T01:43:50;101274.34;;;4.43;67.05
76011;BME280;64701;43.536;1.478;2023-02-03T01:46:37;101265.72;;;4.41;67.23
76011;BME280;64701;43.536;1.478;2023-02-03T01:49:17;101270.25;;;4.39;67.90
76011;BME280;64701;43.536;1.478;2023-02-03T01:51:43;101267.84;;;4.36;68.01
76011;BME280;64701;43.536;1.478;2023-02-03T01:54:11;101265.34;;;4.35;66.57
76011;BME280;64701;43.536;1.478;2023-02-03T01:56:38;101262.59;;;4.36;66.12
76011;BME280;64701;43.536;1.478;2023-02-03T01:59:05;101264.72;;;4.31;66.78
76011;BME280;64701;43.536;1.478;2023-02-03T02:01:31;101264.94;;;4.28;66.57
76011;BME280;64701;43.536;1.478;2023-02-03T02:03:57;101265.16;;;4.25;67.69
76011;BME280;64701;43.536;1.478;2023-02-03T02:06:23;101267.25;;;4.20;67.30
76011;BME280;64701;43.536;1.478;2023-02-03T02:08:49;101257.72;;;4.19;65.41
76011;BME280;64701;43.536;1.478;2023-02-03T02:11:15;101260.66;;;4.15;67.37
76011;BME280;64701;43.536;1.478;2023-02-03T02:13:42;101262.44;;;4.14;65.71
76011;BME280;64701;43.536;1.478;2023-02-03T02:37:17;101242.16;;;4.05;67.55
76011;BME280;64701;43.536;1.478;2023-02-03T02:42:18;101238.03;;;4.01;68.20
76011;BME280;64701;43.536;1.478;2023-02-03T02:44:48;101243.63;;;3.96;69.79
76011;BME280;64701;43.536;1.478;2023-02-03T02:47:19;101237.53;;;3.96;69.39
76011;BME280;64701;43.536;1.478;2023-02-03T02:52:19;101233.22;;;3.95;68.71
76011;BME280;64701;43.536;1.478;2023-02-03T02:54:47;101225.38;;;3.95;68.62
76011;BME280;64701;43.536;1.478;2023-02-03T02:57:13;101231.44;;;3.95;67.29
76011;BME280;64701;43.536;1.478;2023-02-03T02:59:40;101228.72;;;3.97;66.63
76011;BME280;64701;43.536;1.478;2023-02-03T03:02:07;101234.41;;;3.91;67.46
76011;BME280;64701;43.536;1.478;2023-02-03T03:04:32;101226.53;;;3.91;66.04
76011;BME280;64701;43.536;1.478;2023-02-03T03:07:00;101229.59;;;3.85;67.85
76011;BME280;64701;43.536;1.478;2023-02-03T03:09:31;101230.22;;;3.76;68.32
76011;BME280;64701;43.536;1.478;2023-02-03T03:12:22;101226.22;;;3.70;68.41
76011;BME280;64701;43.536;1.478;2023-02-03T03:14:50;101217.53;;;3.69;66.66
76011;BME280;64701;43.536;1.478;2023-02-03T03:17:29;101213.25;;;3.68;65.87
76011;BME280;64701;43.536;1.478;2023-02-03T03:19:56;101208.22;;;3.65;65.83
76011;BME280;64701;43.536;1.478;2023-02-03T03:22:25;101213.56;;;3.64;67.13
76011;BME280;64701;43.536;1.478;2023-02-03T03:24:57;101211.16;;;3.61;68.23
76011;BME280;64701;43.536;1.478;2023-02-03T03:27:25;101208.63;;;3.59;68.37
76011;BME280;64701;43.536;1.478;2023-02-03T03:30:13;101213.88;;;3.59;68.71
76011;BME280;64701;43.536;1.478;2023-02-03T03:32:41;101212.19;;;3.58;68.93
76011;BME280;64701;43.536;1.478;2023-02-03T03:35:06;101212.44;;;3.55;69.63
76011;BME280;64701;43.536;1.478;2023-02-03T03:37:46;101220.38;;;3.54;69.19
76011;BME280;64701;43.536;1.478;2023-02-03T03:40:19;101218.59;;;3.54;68.69
76011;BME280;64701;43.536;1.478;2023-02-03T03:42:58;101213.38;;;3.54;67.07
76011;BME280;64701;43.536;1.478;2023-02-03T03:45:30;101212.84;;;3.49;67.41
76011;BME280;64701;43.536;1.478;2023-02-03T03:50:36;101212.53;;;3.41;66.61
76011;BME280;64701;43.536;1.478;2023-02-03T03:53:03;101218.16;;;3.35;68.00
76011;BME280;64701;43.536;1.478;2023-02-03T03:55:30;101225.31;;;3.33;67.87
76011;BME280;64701;43.536;1.478;2023-02-03T04:00:26;101234.69;;;3.23;68.74
76011;BME280;64701;43.536;1.478;2023-02-03T04:02:55;101236.03;;;3.16;69.04
76011;BME280;64701;43.536;1.478;2023-02-03T04:05:22;101229.34;;;3.12;67.91
76011;BME280;64701;43.536;1.478;2023-02-03T04:07:47;101225.06;;;3.11;67.23
76011;BME280;64701;43.536;1.478;2023-02-03T04:10:24;101233.13;;;3.08;68.61
76011;BME280;64701;43.536;1.478;2023-02-03T04:12:53;101235.00;;;3.06;67.33
76011;BME280;64701;43.536;1.478;2023-02-03T04:15:18;101240.84;;;2.97;69.23
76011;BME280;64701;43.536;1.478;2023-02-03T04:17:43;101243.66;;;2.94;68.19
76011;BME280;64701;43.536;1.478;2023-02-03T04:20:09;101244.56;;;2.93;68.35
76011;BME280;64701;43.536;1.478;2023-02-03T04:22:34;101250.03;;;2.90;67.98
76011;BME280;64701;43.536;1.478;2023-02-03T04:25:00;101248.25;;;2.90;67.64
76011;BME280;64701;43.536;1.478;2023-02-03T04:27:25;101243.09;;;2.88;67.42
76011;BME280;64701;43.536;1.478;2023-02-03T04:29:51;101238.81;;;2.87;67.28
76011;BME280;64701;43.536;1.478;2023-02-03T04:32:16;101239.75;;;2.86;67.97
76011;BME280;64701;43.536;1.478;2023-02-03T04:34:42;101243.31;;;2.85;67.82
76011;BME280;64701;43.536;1.478;2023-02-03T04:37:07;101247.06;;;2.81;68.30
76011;BME280;64701;43.536;1.478;2023-02-03T04:39:32;101247.28;;;2.78;67.81
76011;BME280;64701;43.536;1.478;2023-02-03T04:41:57;101250.81;;;2.77;67.33
76011;BME280;64701;43.536;1.478;2023-02-03T04:44:23;101254.47;;;2.75;67.28
76011;BME280;64701;43.536;1.478;2023-02-03T04:46:48;101265.03;;;2.73;66.85
76011;BME280;64701;43.536;1.478;2023-02-03T04:49:13;101264.38;;;2.70;67.33
76011;BME280;64701;43.536;1.478;2023-02-03T04:51:39;101265.53;;;2.66;67.40
76011;BME280;64701;43.536;1.478;2023-02-03T04:54:04;101259.53;;;2.64;66.65
76011;BME280;64701;43.536;1.478;2023-02-03T04:56:29;101261.53;;;2.60;67.49
76011;BME280;64701;43.536;1.478;2023-02-03T04:58:54;101247.72;;;2.58;67.16
76011;BME280;64701;43.536;1.478;2023-02-03T05:01:20;101241.75;;;2.56;68.15
76011;BME280;64701;43.536;1.478;2023-02-03T05:03:45;101240.06;;;2.55;69.35
76011;BME280;64701;43.536;1.478;2023-02-03T05:06:10;101233.16;;;2.54;68.53
76011;BME280;64701;43.536;1.478;2023-02-03T05:08:36;101241.09;;;2.53;69.31
76011;BME280;64701;43.536;1.478;2023-02-03T05:11:01;101244.84;;;2.49;70.10
76011;BME280;64701;43.536;1.478;2023-02-03T05:13:26;101244.94;;;2.47;68.94
76011;BME280;64701;43.536;1.478;2023-02-03T05:15:51;101245.34;;;2.41;70.63
76011;BME280;64701;43.536;1.478;2023-02-03T05:18:17;101241.41;;;2.34;70.30
76011;BME280;64701;43.536;1.478;2023-02-03T05:20:42;101245.81;;;2.33;69.40
76011;BME280;64701;43.536;1.478;2023-02-03T05:23:07;101244.97;;;2.33;69.24
76011;BME280;64701;43.536;1.478;2023-02-03T05:25:33;101248.53;;;2.32;68.99
76011;BME280;64701;43.536;1.478;2023-02-03T05:27:58;101243.50;;;2.29;69.96
76011;BME280;64701;43.536;1.478;2023-02-03T05:30:23;101242.56;;;2.30;69.24
76011;BME280;64701;43.536;1.478;2023-02-03T05:32:49;101239.09;;;2.29;69.87
76011;BME280;64701;43.536;1.478;2023-02-03T05:35:14;101235.09;;;2.24;72.07
76011;BME280;64701;43.536;1.478;2023-02-03T05:37:39;101220.44;;;2.21;70.53
76011;BME280;64701;43.536;1.478;2023-02-03T05:40:05;101239.78;;;2.19;71.25
76011;BME280;64701;43.536;1.478;2023-02-03T05:42:49;101230.44;;;2.15;71.17
76011;BME280;64701;43.536;1.478;2023-02-03T05:45:14;101230.44;;;2.15;69.92
76011;BME280;64701;43.536;1.478;2023-02-03T05:47:40;101232.34;;;2.13;70.31
76011;BME280;64701;43.536;1.478;2023-02-03T05:50:05;101233.34;;;2.10;70.18
76011;BME280;64701;43.536;1.478;2023-02-03T05:52:31;101239.41;;;2.11;69.61
76011;BME280;64701;43.536;1.478;2023-02-03T05:54:56;101233.34;;;2.10;69.38
76011;BME280;64701;43.536;1.478;2023-02-03T05:57:21;101237.66;;;2.11;70.24
76011;BME280;64701;43.536;1.478;2023-02-03T05:59:47;101240.25;;;2.11;69.51
76011;BME280;64701;43.536;1.478;2023-02-03T06:02:13;101245.47;;;2.11;69.45
76011;BME280;64701;43.536;1.478;2023-02-03T06:04:39;101236.88;;;2.09;69.44
76011;BME280;64701;43.536;1.478;2023-02-03T06:07:05;101244.94;;;2.06;69.67
76011;BME280;64701;43.536;1.478;2023-02-03T06:09:30;101251.16;;;2.03;69.45
76011;BME280;64701;43.536;1.478;2023-02-03T06:11:55;101250.34;;;2.03;69.01
76011;BME280;64701;43.536;1.478;2023-02-03T06:14:21;101259.22;;;2.00;69.26
76011;BME280;64701;43.536;1.478;2023-02-03T06:16:46;101266.28;;;1.98;69.38
76011;BME280;64701;43.536;1.478;2023-02-03T06:19:11;101267.34;;;1.96;69.42
76011;BME280;64701;43.536;1.478;2023-02-03T06:21:37;101265.94;;;1.90;69.94
76011;BME280;64701;43.536;1.478;2023-02-03T06:24:02;101263.50;;;1.87;69.93
76011;BME280;64701;43.536;1.478;2023-02-03T06:26:27;101278.53;;;1.84;69.56
76011;BME280;64701;43.536;1.478;2023-02-03T06:28:53;101274.22;;;1.83;69.00
76011;BME280;64701;43.536;1.478;2023-02-03T06:31:18;101282.91;;;1.83;69.12
76011;BME280;64701;43.536;1.478;2023-02-03T06:33:43;101291.03;;;1.79;71.06
76011;BME280;64701;43.536;1.478;2023-02-03T06:36:09;101276.91;;;1.67;73.12
76011;BME280;64701;43.536;1.478;2023-02-03T06:38:34;101281.56;;;1.62;71.35
76011;BME280;64701;43.536;1.478;2023-02-03T06:40:59;101283.44;;;1.60;70.90
76011;BME280;64701;43.536;1.478;2023-02-03T06:43:25;101267.88;;;1.58;70.41
76011;BME280;64701;43.536;1.478;2023-02-03T06:45:50;101260.88;;;1.59;70.96
76011;BME280;64701;43.536;1.478;2023-02-03T06:48:15;101266.09;;;1.59;71.61
76011;BME280;64701;43.536;1.478;2023-02-03T06:50:40;101262.56;;;1.60;72.76
76011;BME280;64701;43.536;1.478;2023-02-03T06:53:06;101265.19;;;1.60;73.21
76011;BME280;64701;43.536;1.478;2023-02-03T06:55:31;101260.81;;;1.60;74.18
76011;BME280;64701;43.536;1.478;2023-02-03T06:57:56;101262.38;;;1.63;73.90
76011;BME280;64701;43.536;1.478;2023-02-03T07:00:22;101258.00;;;1.63;73.14
76011;BME280;64701;43.536;1.478;2023-02-03T07:02:54;101257.91;;;1.65;73.39
76011;BME280;64701;43.536;1.478;2023-02-03T07:05:21;101257.72;;;1.68;72.68
76011;BME280;64701;43.536;1.478;2023-02-03T07:07:46;101259.59;;;1.66;73.52
76011;BME280;64701;43.536;1.478;2023-02-03T07:10:12;101265.81;;;1.63;73.21
76011;BME280;64701;43.536;1.478;2023-02-03T07:12:37;101272.81;;;1.63;71.96
76011;BME280;64701;43.536;1.478;2023-02-03T07:15:03;101282.25;;;1.66;72.25
76011;BME280;64701;43.536;1.478;2023-02-03T07:17:28;101278.78;;;1.65;73.12
76011;BME280;64701;43.536;1.478;2023-02-03T07:19:54;101282.13;;;1.67;72.96
76011;BME280;64701;43.536;1.478;2023-02-03T07:22:19;101275.06;;;1.69;72.99
76011;BME280;64701;43.536;1.478;2023-02-03T07:24:44;101281.03;;;1.71;73.55
76011;BME280;64701;43.536;1.478;2023-02-03T07:27:10;101286.97;;;1.73;73.43
76011;BME280;64701;43.536;1.478;2023-02-03T07:29:35;101291.13;;;1.77;73.42
76011;BME280;64701;43.536;1.478;2023-02-03T07:32:00;101295.22;;;1.81;72.58
76011;BME280;64701;43.536;1.478;2023-02-03T07:34:26;101291.47;;;1.85;73.05
76011;BME280;64701;43.536;1.478;2023-02-03T07:36:52;101300.91;;;1.88;73.32
76011;BME280;64701;43.536;1.478;2023-02-03T07:39:17;101298.00;;;1.92;72.56
76011;BME280;64701;43.536;1.478;2023-02-03T07:41:42;101303.16;;;1.94;73.99
76011;BME280;64701;43.536;1.478;2023-02-03T07:44:08;101304.00;;;1.94;72.76
76011;BME280;64701;43.536;1.478;2023-02-03T07:46:33;101308.09;;;1.98;72.05
76011;BME280;64701;43.536;1.478;2023-02-03T07:48:59;101303.53;;;2.02;71.94
76011;BME280;64701;43.536;1.478;2023-02-03T07:51:24;101299.88;;;2.04;71.91
76011;BME280;64701;43.536;1.478;2023-02-03T07:53:49;101303.25;;;2.07;72.22
76011;BME280;64701;43.536;1.478;2023-02-03T07:56:15;101309.19;;;2.09;74.15
76011;BME280;64701;43.536;1.478;2023-02-03T07:58:40;101299.34;;;2.14;72.97
76011;BME280;64701;43.536;1.478;2023-02-03T08:01:09;101297.19;;;2.20;73.71
76011;BME280;64701;43.536;1.478;2023-02-03T08:03:34;101297.53;;;2.28;72.90
76011;BME280;64701;43.536;1.478;2023-02-03T08:06:00;101296.69;;;2.42;72.17
76011;BME280;64701;43.536;1.478;2023-02-03T08:08:25;101297.69;;;2.54;72.22
76011;BME280;64701;43.536;1.478;2023-02-03T08:10:50;101292.59;;;2.65;73.87
76011;BME280;64701;43.536;1.478;2023-02-03T08:13:15;101297.91;;;2.77;73.74
76011;BME280;64701;43.536;1.478;2023-02-03T08:15:41;101305.06;;;2.88;75.04
76011;BME280;64701;43.536;1.478;2023-02-03T08:18:06;101300.91;;;2.98;75.90
76011;BME280;64701;43.536;1.478;2023-02-03T08:20:33;101303.28;;;3.15;75.63
76011;BME280;64701;43.536;1.478;2023-02-03T08:22:58;101305.72;;;3.31;74.77
76011;BME280;64701;43.536;1.478;2023-02-03T08:25:24;101293.09;;;3.50;73.51
76011;BME280;64701;43.536;1.478;2023-02-03T08:27:49;101293.50;;;3.69;72.89
76011;BME280;64701;43.536;1.478;2023-02-03T08:30:14;101293.22;;;3.87;71.77
76011;BME280;64701;43.536;1.478;2023-02-03T08:32:40;101293.06;;;4.01;71.75
76011;BME280;64701;43.536;1.478;2023-02-03T08:35:05;101293.91;;;4.14;71.60
76011;BME280;64701;43.536;1.478;2023-02-03T08:37:31;101297.56;;;4.24;71.74
76011;BME280;64701;43.536;1.478;2023-02-03T08:39:56;101294.31;;;4.33;72.19
76011;BME280;64701;43.536;1.478;2023-02-03T08:42:22;101300.03;;;4.51;70.18
76011;BME280;64701;43.536;1.478;2023-02-03T08:44:47;101304.06;;;4.68;70.07
76011;BME280;64701;43.536;1.478;2023-02-03T08:47:13;101287.00;;;4.86;70.88
76011;BME280;64701;43.536;1.478;2023-02-03T08:49:39;101287.53;;;5.02;71.44
76011;BME280;64701;43.536;1.478;2023-02-03T08:52:09;101291.47;;;5.31;70.23
76011;BME280;64701;43.536;1.478;2023-02-03T08:54:35;101297.03;;;5.62;69.39
76011;BME280;64701;43.536;1.478;2023-02-03T08:57:00;101281.22;;;5.97;68.57
76011;BME280;64701;43.536;1.478;2023-02-03T08:59:26;101280.13;;;6.33;67.17
76011;BME280;64701;43.536;1.478;2023-02-03T09:01:51;101280.78;;;6.68;65.99
76011;BME280;64701;43.536;1.478;2023-02-03T09:04:17;101294.56;;;7.04;65.28
76011;BME280;64701;43.536;1.478;2023-02-03T09:06:46;101270.84;;;7.35;64.29
76011;BME280;64701;43.536;1.478;2023-02-03T09:09:12;101283.44;;;7.73;63.78
76011;BME280;64701;43.536;1.478;2023-02-03T09:11:37;101295.59;;;8.16;62.75
76011;BME280;64701;43.536;1.478;2023-02-03T09:14:04;101303.72;;;8.74;62.14
76011;BME280;64701;43.536;1.478;2023-02-03T09:16:29;101306.81;;;9.27;61.69
76011;BME280;64701;43.536;1.478;2023-02-03T09:18:55;101305.50;;;9.79;59.94
76011;BME280;64701;43.536;1.478;2023-02-03T09:21:20;101293.94;;;10.36;59.58
76011;BME280;64701;43.536;1.478;2023-02-03T09:23:45;101298.72;;;10.78;56.74
76011;BME280;64701;43.536;1.478;2023-02-03T09:26:11;101297.56;;;11.16;55.42
76011;BME280;64701;43.536;1.478;2023-02-03T09:28:37;101306.41;;;11.60;54.67
76011;BME280;64701;43.536;1.478;2023-02-03T09:31:04;101308.59;;;12.08;52.30
76011;BME280;64701;43.536;1.478;2023-02-03T09:33:29;101299.63;;;12.43;51.27
76011;BME280;64701;43.536;1.478;2023-02-03T09:35:55;101307.88;;;12.74;50.50
76011;BME280;64701;43.536;1.478;2023-02-03T09:38:21;101302.50;;;13.32;51.41
76011;BME280;64701;43.536;1.478;2023-02-03T09:46:06;101310.97;;;14.47;46.82
76011;BME280;64701;43.536;1.478;2023-02-03T09:48:36;101317.28;;;14.85;46.89
76011;BME280;64701;43.536;1.478;2023-02-03T09:51:05;101319.91;;;15.16;45.27
76011;BME280;64701;43.536;1.478;2023-02-03T09:53:35;101323.91;;;15.43;43.17
76011;BME280;64701;43.536;1.478;2023-02-03T09:56:09;101312.31;;;15.88;44.24
76011;BME280;64701;43.536;1.478;2023-02-03T09:58:41;101325.25;;;16.43;44.34
76011;BME280;64701;43.536;1.478;2023-02-03T10:01:07;101314.50;;;16.87;43.60
76011;BME280;64701;43.536;1.478;2023-02-03T10:03:40;101316.53;;;17.21;42.25
76011;BME280;64701;43.536;1.478;2023-02-03T10:06:11;101324.19;;;17.52;41.87
76011;BME280;64701;43.536;1.478;2023-02-03T10:14:20;101342.41;;;18.40;39.21
76011;BME280;64701;43.536;1.478;2023-02-03T10:19:43;101343.31;;;19.14;37.63
76011;BME280;64701;43.536;1.478;2023-02-03T10:22:12;101346.72;;;19.69;39.75
76011;BME280;64701;43.536;1.478;2023-02-03T10:24:44;101345.28;;;19.86;36.73
76011;BME280;64701;43.536;1.478;2023-02-03T10:27:19;101329.72;;;20.34;38.42
76011;BME280;64701;43.536;1.478;2023-02-03T10:29:47;101338.72;;;20.66;36.91
76011;BME280;64701;43.536;1.478;2023-02-03T10:32:18;101340.59;;;20.66;36.26
76011;BME280;64701;43.536;1.478;2023-02-03T10:34:43;101345.78;;;20.99;37.14
76011;BME280;64701;43.536;1.478;2023-02-03T10:39:49;101341.09;;;21.57;33.54
76011;BME280;64701;43.536;1.478;2023-02-03T10:42:15;101344.63;;;21.82;35.27
76011;BME280;64701;43.536;1.478;2023-02-03T10:44:42;101347.31;;;22.07;35.37
76011;BME280;64701;43.536;1.478;2023-02-03T10:47:19;101354.16;;;22.10;33.65
76011;BME280;64701;43.536;1.478;2023-02-03T10:49:46;101348.63;;;22.41;34.24
76011;BME280;64701;43.536;1.478;2023-02-03T10:52:26;101340.91;;;22.63;32.55
76011;BME280;64701;43.536;1.478;2023-02-03T10:54:51;101328.28;;;22.93;32.71
76011;BME280;64701;43.536;1.478;2023-02-03T10:57:17;101317.66;;;23.10;31.46
76011;BME280;64701;43.536;1.478;2023-02-03T10:59:44;101321.72;;;23.42;33.02
76011;BME280;64701;43.536;1.478;2023-02-03T11:02:19;101316.72;;;23.57;30.03
76011;BME280;64701;43.536;1.478;2023-02-03T11:04:45;101313.34;;;23.85;31.92
76011;BME280;64701;43.536;1.478;2023-02-03T11:07:22;101316.63;;;24.11;32.13
76011;BME280;64701;43.536;1.478;2023-02-03T11:09:48;101310.59;;;24.32;30.00
76011;BME280;64701;43.536;1.478;2023-02-03T11:12:19;101312.97;;;24.68;28.40
76011;BME280;64701;43.536;1.478;2023-02-03T11:17:19;101308.25;;;24.75;27.55
76011;BME280;64701;43.536;1.478;2023-02-03T11:19:50;101304.63;;;24.98;29.46
76011;BME280;64701;43.536;1.478;2023-02-03T11:24:51;101312.19;;;25.75;27.47
76011;BME280;64701;43.536;1.478;2023-02-03T11:27:17;101305.44;;;25.94;26.81
76011;BME280;64701;43.536;1.478;2023-02-03T11:29:48;101309.19;;;26.10;28.12
76011;BME280;64701;43.536;1.478;2023-02-03T11:34:46;101304.88;;;26.74;27.70
76011;BME280;64701;43.536;1.478;2023-02-03T11:42:36;101304.13;;;27.37;26.71
76011;BME280;64701;43.536;1.478;2023-02-03T11:45:44;101299.44;;;27.28;27.53
76011;BME280;64701;43.536;1.478;2023-02-03T11:53:21;101295.97;;;27.37;27.63
76011;BME280;64701;43.536;1.478;2023-02-03T12:08:59;101270.34;;;30.06;24.44
76011;BME280;64701;43.536;1.478;2023-02-03T12:21:59;101251.28;;;32.76;19.25
76011;BME280;64701;43.536;1.478;2023-02-03T12:29:43;101237.59;;;34.86;20.02
76011;BME280;64701;43.536;1.478;2023-02-03T12:37:15;101229.56;;;36.30;18.57
76011;BME280;64701;43.536;1.478;2023-02-03T12:39:46;101223.44;;;36.94;18.49
76011;BME280;64701;43.536;1.478;2023-02-03T12:42:22;101228.75;;;37.07;17.19
76011;BME280;64701;43.536;1.478;2023-02-03T12:47:29;101209.97;;;37.65;15.65
76011;BME280;64701;43.536;1.478;2023-02-03T12:49:56;101204.75;;;37.92;16.54
76011;BME280;64701;43.536;1.478;2023-02-03T12:52:37;101203.47;;;37.52;14.86
76011;BME280;64701;43.536;1.478;2023-02-03T12:57:34;101210.22;;;38.30;16.09
76011;BME280;64701;43.536;1.478;2023-02-03T13:02:28;101195.34;;;39.09;14.92
76011;BME280;64701;43.536;1.478;2023-02-03T13:05:00;101186.97;;;39.30;15.98
76011;BME280;64701;43.536;1.478;2023-02-03T13:07:35;101181.69;;;39.37;14.92
76011;BME280;64701;43.536;1.478;2023-02-03T13:12:41;101179.16;;;39.81;15.31
76011;BME280;64701;43.536;1.478;2023-02-03T13:15:21;101168.97;;;40.09;15.51
76011;BME280;64701;43.536;1.478;2023-02-03T13:17:49;101172.91;;;40.48;15.04
76011;BME280;64701;43.536;1.478;2023-02-03T13:20:24;101164.88;;;40.87;14.24
76011;BME280;64701;43.536;1.478;2023-02-03T13:22:50;101169.59;;;41.14;14.52
76011;BME280;64701;43.536;1.478;2023-02-03T13:25:23;101158.72;;;40.37;12.60
76011;BME280;64701;43.536;1.478;2023-02-03T13:40:58;101139.97;;;41.06;14.02
76011;BME280;64701;43.536;1.478;2023-02-03T13:43:30;101133.28;;;41.23;12.90
76011;BME280;64701;43.536;1.478;2023-02-03T13:45:57;101136.50;;;41.09;13.15
76011;BME280;64701;43.536;1.478;2023-02-03T13:48:25;101136.50;;;41.91;13.48
76011;BME280;64701;43.536;1.478;2023-02-03T13:51:04;101143.28;;;42.48;12.93
76011;BME280;64701;43.536;1.478;2023-02-03T13:53:32;101135.34;;;42.69;12.79
76011;BME280;64701;43.536;1.478;2023-02-03T13:56:02;101129.00;;;42.91;12.72
76011;BME280;64701;43.536;1.478;2023-02-03T13:58:29;101131.91;;;42.98;12.37
76011;BME280;64701;43.536;1.478;2023-02-03T14:00:57;101137.78;;;42.93;12.66
76011;BME280;64701;43.536;1.478;2023-02-03T14:05:48;101130.31;;;42.17;11.61
76011;BME280;64701;43.536;1.478;2023-02-03T14:14:00;101128.25;;;41.79;13.26
76011;BME280;64701;43.536;1.478;2023-02-03T14:16:45;101133.06;;;41.47;13.41
76011;BME280;64701;43.536;1.478;2023-02-03T14:21:54;101126.22;;;40.38;13.76
76011;BME280;64701;43.536;1.478;2023-02-03T14:24:22;101125.66;;;39.68;14.53
76011;BME280;64701;43.536;1.478;2023-02-03T14:26:50;101120.34;;;39.51;13.93
76011;BME280;64701;43.536;1.478;2023-02-03T14:29:26;101120.53;;;39.22;13.83
76011;BME280;64701;43.536;1.478;2023-02-03T14:32:09;101121.47;;;37.65;14.17
76011;BME280;64701;43.536;1.478;2023-02-03T14:34:45;101117.88;;;38.35;14.74
76011;BME280;64701;43.536;1.478;2023-02-03T14:52:32;101100.38;;;36.24;15.50
76011;BME280;64701;43.536;1.478;2023-02-03T14:57:37;101103.31;;;36.36;16.17
76011;BME280;64701;43.536;1.478;2023-02-03T15:02:31;101110.53;;;35.63;16.50
76011;BME280;64701;43.536;1.478;2023-02-03T15:10:16;101102.66;;;33.97;16.99
76011;BME280;64701;43.536;1.478;2023-02-03T15:12:43;101104.84;;;33.45;16.89
76011;BME280;64701;43.536;1.478;2023-02-03T15:17:46;101109.03;;;31.47;19.06
76011;BME280;64701;43.536;1.478;2023-02-03T15:22:52;101119.63;;;29.84;19.63
76011;BME280;64701;43.536;1.478;2023-02-03T15:25:18;101118.22;;;26.85;22.00
76011;BME280;64701;43.536;1.478;2023-02-03T15:27:45;101125.41;;;25.67;23.46
76011;BME280;64701;43.536;1.478;2023-02-03T15:30:29;101122.50;;;24.51;24.44
76011;BME280;64701;43.536;1.478;2023-02-03T15:35:54;101129.75;;;22.13;27.04
76011;BME280;64701;43.536;1.478;2023-02-03T15:38:28;101127.47;;;21.43;27.84
76011;BME280;64701;43.536;1.478;2023-02-03T15:40:55;101122.13;;;20.38;29.87
76011;BME280;64701;43.536;1.478;2023-02-03T15:43:32;101126.81;;;19.40;31.35
76011;BME280;64701;43.536;1.478;2023-02-03T15:48:38;101132.56;;;18.38;32.75
76011;BME280;64701;43.536;1.478;2023-02-03T15:51:07;101132.22;;;17.87;33.97